JTA212 ROKJ-ROAH
Flight info
| Callsign | JTA212 |
|---|---|
| Flight time | 0h 18m |
| Altitude | 7000 |
| Route | DORIS GURUX |
| Aircraft | B738/M-SDE2E3FGHIRWXY/LB1 |
Departure
| Time | 2026-04-24 14:14 |
|---|---|
| Airport | Kumejima Airport (ROKJ) |
Arrival
| Time | 2026-04-24 14:33 |
|---|---|
| Airport | Naha International Airport (ROAH) |
| Time | Latitude | Longitude | Altitude | Speed | Heading |
|---|---|---|---|---|---|
| 2026-04-24 14:12 | 26.35596 | 126.71066 | 30 ft | 24 kts | 186° |
| 2026-04-24 14:12 | 26.35516 | 126.71035 | 29 ft | 8 kts | 270° |
| 2026-04-24 14:13 | 26.35540 | 126.71013 | 29 ft | 3 kts | 9° |
| 2026-04-24 14:13 | 26.35554 | 126.71032 | 29 ft | 4 kts | 56° |
| 2026-04-24 14:13 | 26.35579 | 126.71054 | 30 ft | 0 kts | 20° |
| 2026-04-24 14:13 | 26.35650 | 126.71084 | 30 ft | 39 kts | 21° |
| 2026-04-24 14:14 | 26.36145 | 126.71296 | 31 ft | 111 kts | 21° |
| 2026-04-24 14:14 | 26.37053 | 126.71681 | 57 ft | 164 kts | 20° |
| 2026-04-24 14:14 | 26.39437 | 126.72292 | 1411 ft | 185 kts | 346° |
| 2026-04-24 14:15 | 26.40445 | 126.71419 | 2204 ft | 201 kts | 303° |
| 2026-04-24 14:15 | 26.40700 | 126.69787 | 2453 ft | 235 kts | 260° |
| 2026-04-24 14:15 | 26.40287 | 126.67928 | 2737 ft | 260 kts | 261° |
| 2026-04-24 14:15 | 26.39946 | 126.65927 | 3468 ft | 263 kts | 260° |
| 2026-04-24 14:16 | 26.39349 | 126.64017 | 3822 ft | 264 kts | 235° |
| 2026-04-24 14:16 | 26.37951 | 126.62686 | 3984 ft | 273 kts | 208° |
| 2026-04-24 14:16 | 26.36116 | 126.62144 | 4567 ft | 276 kts | 185° |
| 2026-04-24 14:17 | 26.32410 | 126.63262 | 6424 ft | 295 kts | 147° |
| 2026-04-24 14:17 | 26.31004 | 126.64915 | 6871 ft | 302 kts | 128° |
| 2026-04-24 14:17 | 26.28680 | 126.68905 | 6996 ft | 307 kts | 124° |
| 2026-04-24 14:18 | 26.27562 | 126.70897 | 7006 ft | 307 kts | 123° |
| 2026-04-24 14:18 | 26.26705 | 126.73088 | 7006 ft | 310 kts | 108° |
| 2026-04-24 14:18 | 26.26125 | 126.75431 | 7001 ft | 310 kts | 104° |
| 2026-04-24 14:18 | 26.25619 | 126.77738 | 6995 ft | 311 kts | 104° |
| 2026-04-24 14:19 | 26.25099 | 126.80074 | 7002 ft | 310 kts | 105° |
| 2026-04-24 14:19 | 26.24559 | 126.82402 | 6999 ft | 310 kts | 105° |
| 2026-04-24 14:19 | 26.24002 | 126.84723 | 6996 ft | 310 kts | 106° |
| 2026-04-24 14:19 | 26.23431 | 126.87038 | 6997 ft | 310 kts | 106° |
| 2026-04-24 14:20 | 26.22852 | 126.89347 | 6998 ft | 309 kts | 107° |
| 2026-04-24 14:20 | 26.22269 | 126.91650 | 6994 ft | 309 kts | 107° |
| 2026-04-24 14:20 | 26.21683 | 126.93949 | 6996 ft | 308 kts | 107° |
| 2026-04-24 14:20 | 26.21095 | 126.96244 | 7000 ft | 308 kts | 107° |
| 2026-04-24 14:21 | 26.20506 | 126.98541 | 7000 ft | 308 kts | 107° |
| 2026-04-24 14:21 | 26.19919 | 127.00828 | 6990 ft | 308 kts | 107° |
| 2026-04-24 14:21 | 26.19328 | 127.03125 | 6989 ft | 308 kts | 107° |
| 2026-04-24 14:21 | 26.18740 | 127.05411 | 6987 ft | 307 kts | 107° |
| 2026-04-24 14:22 | 26.18150 | 127.07700 | 6995 ft | 307 kts | 107° |
| 2026-04-24 14:22 | 26.17563 | 127.09979 | 6992 ft | 307 kts | 107° |
| 2026-04-24 14:22 | 26.16384 | 127.14551 | 6989 ft | 307 kts | 107° |
| 2026-04-24 14:23 | 26.15793 | 127.16835 | 6989 ft | 307 kts | 107° |
| 2026-04-24 14:23 | 26.15201 | 127.19122 | 6988 ft | 307 kts | 107° |
| 2026-04-24 14:23 | 26.14516 | 127.21358 | 6985 ft | 305 kts | 117° |
| 2026-04-24 14:23 | 26.13554 | 127.23433 | 6990 ft | 299 kts | 121° |
| 2026-04-24 14:24 | 26.12564 | 127.25454 | 6977 ft | 295 kts | 121° |
| 2026-04-24 14:24 | 26.11586 | 127.27441 | 6978 ft | 291 kts | 121° |
| 2026-04-24 14:24 | 26.10619 | 127.29414 | 6978 ft | 292 kts | 121° |
| 2026-04-24 14:24 | 26.09642 | 127.31412 | 6812 ft | 296 kts | 121° |
| 2026-04-24 14:25 | 26.08659 | 127.33431 | 6612 ft | 297 kts | 121° |
| 2026-04-24 14:25 | 26.07682 | 127.35444 | 6344 ft | 295 kts | 120° |
| 2026-04-24 14:25 | 26.06712 | 127.37445 | 6064 ft | 294 kts | 120° |
| 2026-04-24 14:25 | 26.05746 | 127.39440 | 5788 ft | 292 kts | 120° |
| 2026-04-24 14:26 | 26.04782 | 127.41429 | 5489 ft | 291 kts | 120° |
| 2026-04-24 14:26 | 26.03822 | 127.43411 | 5201 ft | 291 kts | 120° |
| 2026-04-24 14:26 | 26.02868 | 127.45381 | 4920 ft | 289 kts | 120° |
| 2026-04-24 14:26 | 26.01914 | 127.47348 | 4628 ft | 288 kts | 119° |
| 2026-04-24 14:27 | 26.00964 | 127.49308 | 4348 ft | 287 kts | 119° |
| 2026-04-24 14:27 | 26.00021 | 127.51251 | 4076 ft | 285 kts | 119° |
| 2026-04-24 14:27 | 25.99085 | 127.53178 | 3799 ft | 283 kts | 118° |
| 2026-04-24 14:27 | 25.98157 | 127.55107 | 3515 ft | 281 kts | 115° |
| 2026-04-24 14:28 | 25.97724 | 127.57181 | 3271 ft | 276 kts | 86° |
| 2026-04-24 14:28 | 25.98189 | 127.59181 | 3171 ft | 262 kts | 59° |
| 2026-04-24 14:28 | 25.99289 | 127.60723 | 3078 ft | 250 kts | 38° |
| 2026-04-24 14:28 | 26.00734 | 127.61718 | 2982 ft | 240 kts | 25° |
| 2026-04-24 14:29 | 26.02194 | 127.62552 | 2883 ft | 232 kts | 26° |
| 2026-04-24 14:29 | 26.03612 | 127.63361 | 2696 ft | 226 kts | 25° |
| 2026-04-24 14:29 | 26.05087 | 127.63801 | 2458 ft | 216 kts | 3° |
| 2026-04-24 14:29 | 26.06559 | 127.63863 | 2194 ft | 209 kts | 0° |
| 2026-04-24 14:30 | 26.07510 | 127.63848 | 2025 ft | 203 kts | 358° |
| 2026-04-24 14:30 | 26.09325 | 127.63761 | 1676 ft | 189 kts | 357° |
| 2026-04-24 14:30 | 26.10577 | 127.63700 | 1448 ft | 171 kts | 357° |
| 2026-04-24 14:30 | 26.11725 | 127.63646 | 1221 ft | 154 kts | 357° |
| 2026-04-24 14:31 | 26.12749 | 127.63598 | 1015 ft | 143 kts | 357° |
| 2026-04-24 14:31 | 26.13731 | 127.63551 | 837 ft | 141 kts | 357° |
| 2026-04-24 14:31 | 26.14697 | 127.63505 | 672 ft | 141 kts | 357° |
| 2026-04-24 14:31 | 26.15674 | 127.63459 | 486 ft | 140 kts | 357° |
| 2026-04-24 14:32 | 26.16660 | 127.63412 | 302 ft | 139 kts | 358° |
| 2026-04-24 14:32 | 26.17627 | 127.63365 | 108 ft | 139 kts | 358° |
| 2026-04-24 14:32 | 26.18563 | 127.63327 | 28 ft | 122 kts | 358° |
| 2026-04-24 14:32 | 26.19290 | 127.63293 | 27 ft | 87 kts | 357° |
| 2026-04-24 14:33 | 26.19733 | 127.63338 | 29 ft | 45 kts | 25° |
| 2026-04-24 14:33 | 26.19977 | 127.63450 | 28 ft | 28 kts | 358° |
| 2026-04-24 14:33 | 26.20166 | 127.63440 | 27 ft | 26 kts | 357° |
| 2026-04-24 14:33 | 26.20294 | 127.63456 | 27 ft | 11 kts | 58° |
| 2026-04-24 14:34 | 26.20302 | 127.63544 | 27 ft | 12 kts | 88° |
| 2026-04-24 14:34 | 26.20307 | 127.63640 | 27 ft | 14 kts | 87° |
| 2026-04-24 14:34 | 26.20312 | 127.63752 | 27 ft | 15 kts | 88° |
| 2026-04-24 14:34 | 26.20315 | 127.63877 | 28 ft | 17 kts | 88° |
| 2026-04-24 14:35 | 26.20321 | 127.64014 | 28 ft | 18 kts | 87° |
| 2026-04-24 14:35 | 26.20326 | 127.64157 | 27 ft | 18 kts | 88° |
| 2026-04-24 14:35 | 26.20331 | 127.64301 | 27 ft | 19 kts | 88° |
| 2026-04-24 14:35 | 26.20338 | 127.64447 | 28 ft | 19 kts | 87° |
| 2026-04-24 14:36 | 26.20344 | 127.64596 | 27 ft | 20 kts | 87° |
| 2026-04-24 14:36 | 26.20350 | 127.64754 | 27 ft | 20 kts | 88° |
| 2026-04-24 14:36 | 26.20356 | 127.64883 | 27 ft | 8 kts | 77° |
| 2026-04-24 14:36 | 26.20405 | 127.64917 | 27 ft | 9 kts | 26° |
| 2026-04-24 14:37 | 26.20432 | 127.64933 | 27 ft | 1 kts | 28° |